createdAt,value
2022-12-27T00:00:14.486Z,20.20
2022-12-27T00:03:03.087Z,20.80
2022-12-27T00:05:31.699Z,20.00
2022-12-27T00:08:00.319Z,19.70
2022-12-27T00:10:28.855Z,18.60
2022-12-27T00:12:57.383Z,18.40
2022-12-27T00:15:27.514Z,20.60
2022-12-27T00:17:56.095Z,21.00
2022-12-27T00:20:24.748Z,18.30
2022-12-27T00:22:53.304Z,20.50
2022-12-27T00:25:21.941Z,20.50
2022-12-27T00:27:50.457Z,21.50
2022-12-27T00:30:19.260Z,20.80
2022-12-27T00:32:47.750Z,20.00
2022-12-27T00:35:16.313Z,20.70
2022-12-27T00:37:44.952Z,21.30
2022-12-27T00:40:13.686Z,19.60
2022-12-27T00:42:42.214Z,22.30
2022-12-27T00:45:11.511Z,23.00
2022-12-27T00:47:40.453Z,20.60
2022-12-27T00:50:09.588Z,20.80
2022-12-27T00:52:38.194Z,20.80
2022-12-27T00:55:07.120Z,23.70
2022-12-27T00:57:35.651Z,20.20
2022-12-27T01:00:10.401Z,25.80
2022-12-27T01:02:39.822Z,23.60
2022-12-27T01:05:09.282Z,22.70
2022-12-27T01:07:37.796Z,20.30
2022-12-27T01:10:07.062Z,19.10
2022-12-27T01:12:36.941Z,18.90
2022-12-27T01:15:07.827Z,19.40
2022-12-27T01:17:36.517Z,19.90
2022-12-27T01:20:06.151Z,20.50
2022-12-27T01:22:34.752Z,20.50
2022-12-27T01:25:03.476Z,22.60
2022-12-27T01:27:32.017Z,18.60
2022-12-27T01:30:00.587Z,21.80
2022-12-27T01:32:29.656Z,18.50
2022-12-27T01:34:58.092Z,19.70
2022-12-27T01:37:29.361Z,17.90
2022-12-27T01:39:58.091Z,19.70
2022-12-27T01:42:46.190Z,18.50
2022-12-27T01:45:28.097Z,19.20
2022-12-27T01:48:35.336Z,19.20
2022-12-27T01:51:05.962Z,19.90
2022-12-27T01:53:39.003Z,18.40
2022-12-27T01:56:27.921Z,20.90
2022-12-27T01:59:06.338Z,17.50
2022-12-27T02:01:42.816Z,20.20
2022-12-27T02:04:16.666Z,20.50
2022-12-27T02:06:45.401Z,21.60
2022-12-27T02:09:30.345Z,18.50
2022-12-27T02:12:02.005Z,18.30
2022-12-27T02:14:45.336Z,18.50
2022-12-27T02:17:16.008Z,19.10
2022-12-27T02:20:00.736Z,19.70
2022-12-27T02:23:09.458Z,19.30
2022-12-27T02:25:58.893Z,19.20
2022-12-27T02:28:34.396Z,20.10
2022-12-27T02:31:15.407Z,19.00
2022-12-27T02:33:48.102Z,19.60
2022-12-27T02:36:24.383Z,20.60
2022-12-27T02:38:58.816Z,18.80
2022-12-27T02:41:48.885Z,18.20
2022-12-27T02:44:38.713Z,18.50
2022-12-27T02:47:45.036Z,18.10
2022-12-27T02:50:34.295Z,19.00
2022-12-27T02:53:21.661Z,18.10
2022-12-27T02:56:30.022Z,19.70
2022-12-27T03:00:11.799Z,20.50
2022-12-27T03:03:29.103Z,18.60
2022-12-27T03:06:41.027Z,20.60
2022-12-27T03:10:08.806Z,18.00
2022-12-27T03:13:20.906Z,17.70
2022-12-27T03:16:22.023Z,20.90
2022-12-27T03:19:36.214Z,18.50
2022-12-27T03:22:50.054Z,20.70
2022-12-27T03:25:31.159Z,21.80
2022-12-27T03:28:31.125Z,19.80
2022-12-27T03:31:36.644Z,19.90
2022-12-27T03:34:28.047Z,18.30
2022-12-27T03:40:07.287Z,17.90
2022-12-27T03:43:03.375Z,19.00
2022-12-27T03:46:35.545Z,21.20
2022-12-27T03:49:25.647Z,20.80
2022-12-27T03:52:17.370Z,21.00
2022-12-27T03:54:49.032Z,17.90
2022-12-27T03:57:21.626Z,19.30
2022-12-27T03:59:50.458Z,19.40
2022-12-27T04:02:20.048Z,21.20
2022-12-27T04:04:49.289Z,20.00
2022-12-27T04:07:18.406Z,19.70
2022-12-27T04:10:05.332Z,19.20
2022-12-27T04:12:52.200Z,20.90
2022-12-27T04:15:39.412Z,20.20
2022-12-27T04:18:26.399Z,19.90
2022-12-27T04:21:13.445Z,18.20
2022-12-27T04:24:00.550Z,21.30
2022-12-27T04:26:47.360Z,18.90
2022-12-27T04:29:34.191Z,20.00
2022-12-27T04:32:23.072Z,20.00
2022-12-27T04:34:51.854Z,19.50
2022-12-27T04:37:20.709Z,17.00
2022-12-27T04:40:29.861Z,17.30
2022-12-27T04:43:16.668Z,21.30
2022-12-27T04:46:03.910Z,19.30
2022-12-27T04:48:51.221Z,20.10
2022-12-27T04:51:38.174Z,24.10
2022-12-27T04:54:55.056Z,20.80
2022-12-27T04:57:24.023Z,19.60
2022-12-27T05:00:10.852Z,21.70
2022-12-27T05:02:40.146Z,24.10
2022-12-27T05:05:09.779Z,23.40
2022-12-27T05:07:57.259Z,20.70
2022-12-27T05:10:45.255Z,17.30
2022-12-27T05:13:33.361Z,20.60
2022-12-27T05:16:02.125Z,20.90
2022-12-27T05:18:30.678Z,17.90
2022-12-27T05:21:07.786Z,19.60
2022-12-27T05:24:00.199Z,18.00
2022-12-27T05:26:32.897Z,19.60
2022-12-27T05:29:02.051Z,19.80
2022-12-27T05:31:30.711Z,24.50
2022-12-27T05:34:00.655Z,19.90
2022-12-27T05:36:29.569Z,20.50
2022-12-27T05:38:59.667Z,18.70
2022-12-27T05:41:28.371Z,26.50
2022-12-27T05:44:04.782Z,27.60
2022-12-27T05:46:36.404Z,24.10
2022-12-27T05:49:05.578Z,22.40
2022-12-27T05:51:34.356Z,25.40
2022-12-27T05:54:02.947Z,22.00
2022-12-27T05:56:35.824Z,23.90
2022-12-27T05:59:05.206Z,21.20
2022-12-27T06:01:34.486Z,23.90
2022-12-27T06:05:06.485Z,20.90
2022-12-27T06:07:40.149Z,20.40
2022-12-27T06:10:13.475Z,20.30
2022-12-27T06:13:10.923Z,20.80
2022-12-27T06:15:39.946Z,23.30
2022-12-27T06:18:09.375Z,23.50
2022-12-27T06:20:38.646Z,19.80
2022-12-27T06:23:07.826Z,24.30
2022-12-27T06:25:39.132Z,22.90
2022-12-27T06:28:08.394Z,24.40
2022-12-27T06:30:43.231Z,24.80
2022-12-27T06:33:18.338Z,22.10
2022-12-27T06:36:17.385Z,24.50
2022-12-27T06:38:47.099Z,23.20
2022-12-27T06:41:19.373Z,21.90
2022-12-27T06:44:04.400Z,21.00
2022-12-27T06:46:34.982Z,22.90
2022-12-27T06:49:07.365Z,23.30
2022-12-27T07:01:37.525Z,19.80
2022-12-27T07:04:12.046Z,20.30
2022-12-27T07:06:41.872Z,20.70
2022-12-27T07:09:19.202Z,19.50
2022-12-27T07:12:14.928Z,23.60
2022-12-27T07:14:48.086Z,21.50
2022-12-27T07:17:17.885Z,21.90
2022-12-27T07:19:48.487Z,21.10
2022-12-27T07:22:23.074Z,20.20
2022-12-27T07:24:52.259Z,21.20
2022-12-27T07:27:22.320Z,19.40
2022-12-27T07:29:52.561Z,23.70
2022-12-27T07:32:23.199Z,22.80
2022-12-27T07:34:56.472Z,21.90
2022-12-27T07:48:04.003Z,21.50
2022-12-27T07:50:33.539Z,20.70
2022-12-27T07:53:05.219Z,20.70
2022-12-27T07:55:43.198Z,19.10
2022-12-27T07:58:20.772Z,22.80
2022-12-27T08:00:53.468Z,19.40
2022-12-27T08:03:23.235Z,20.00
2022-12-27T08:05:56.238Z,21.50
2022-12-27T08:08:33.303Z,23.10
2022-12-27T08:11:05.690Z,24.70
2022-12-27T08:13:36.154Z,20.00
2022-12-27T08:16:06.361Z,20.40
2022-12-27T08:18:36.203Z,22.60
2022-12-27T08:21:10.832Z,24.90
2022-12-27T08:23:43.139Z,24.30
2022-12-27T08:26:12.617Z,20.30
2022-12-27T08:28:41.800Z,21.10
2022-12-27T08:31:13.009Z,25.30
2022-12-27T08:36:54.062Z,31.40
2022-12-27T08:39:03.016Z,27.60
2022-12-27T08:41:37.296Z,32.80
2022-12-27T08:44:07.906Z,45.00
2022-12-27T08:46:37.235Z,44.20
2022-12-27T08:49:10.644Z,39.80
2022-12-27T08:51:45.201Z,84.20
2022-12-27T08:54:15.988Z,55.90
2022-12-27T08:56:47.641Z,54.10
2022-12-27T08:59:17.299Z,51.20
2022-12-27T09:01:46.810Z,52.20
2022-12-27T09:04:15.805Z,80.20
2022-12-27T09:06:46.341Z,90.30
2022-12-27T09:09:15.576Z,102.10
2022-12-27T09:11:44.861Z,105.40
2022-12-27T09:14:13.733Z,104.60
2022-12-27T09:16:54.598Z,107.80
2022-12-27T09:21:13.267Z,111.90
2022-12-27T09:23:43.239Z,112.80
2022-12-27T09:26:27.306Z,116.80
2022-12-27T09:29:02.383Z,125.80
2022-12-27T09:31:33.166Z,115.70
2022-12-27T09:34:30.905Z,120.40
2022-12-27T09:37:00.138Z,116.90
2022-12-27T09:39:29.152Z,119.30
2022-12-27T09:48:37.402Z,132.20
2022-12-27T09:51:25.510Z,137.60
2022-12-27T09:54:17.787Z,114.90
2022-12-27T09:57:18.210Z,127.90
2022-12-27T09:59:45.733Z,137.10
2022-12-27T10:02:25.244Z,160.00
2022-12-27T10:07:57.242Z,153.80
2022-12-27T10:10:40.604Z,153.60
2022-12-27T10:14:00.304Z,158.00
2022-12-27T10:16:35.130Z,160.40
2022-12-27T10:19:45.108Z,167.10
2022-12-27T10:22:35.232Z,157.20
2022-12-27T10:25:11.953Z,158.20
2022-12-27T10:27:43.400Z,146.20
2022-12-27T10:30:21.377Z,150.20
2022-12-27T10:32:50.973Z,160.00
2022-12-27T10:35:21.902Z,153.70
2022-12-27T10:37:50.986Z,154.80
2022-12-27T10:40:40.815Z,150.90
2022-12-27T10:43:19.671Z,158.20
2022-12-27T10:46:27.514Z,150.40
2022-12-27T10:49:24.741Z,154.80
2022-12-27T10:51:58.301Z,162.40
2022-12-27T10:54:30.349Z,157.30
2022-12-27T10:57:26.338Z,156.50
2022-12-27T11:00:15.991Z,166.20
2022-12-27T11:03:01.207Z,158.70
2022-12-27T11:05:33.854Z,156.30
2022-12-27T11:08:21.283Z,164.00
2022-12-27T11:10:50.300Z,168.00
2022-12-27T11:13:19.532Z,159.20
2022-12-27T11:15:58.687Z,158.80
2022-12-27T11:18:53.084Z,159.80
2022-12-27T11:21:27.816Z,172.10
2022-12-27T11:24:01.481Z,149.40
2022-12-27T11:27:03.924Z,153.80
2022-12-27T11:29:36.358Z,142.10
2022-12-27T11:32:08.314Z,160.20
2022-12-27T11:34:38.512Z,165.90
2022-12-27T11:38:24.557Z,169.40
2022-12-27T11:41:27.693Z,178.80
2022-12-27T11:47:43.594Z,179.40
2022-12-27T11:50:48.814Z,174.30
2022-12-27T11:53:36.093Z,163.40
2022-12-27T11:56:24.538Z,174.10
2022-12-27T11:59:29.070Z,180.50
2022-12-27T12:02:20.596Z,172.00
2022-12-27T12:05:00.177Z,182.90
2022-12-27T12:07:59.932Z,169.60
2022-12-27T12:11:05.829Z,171.70
2022-12-27T12:13:46.488Z,180.00
2022-12-27T12:16:50.500Z,172.80
2022-12-27T12:19:36.558Z,185.60
2022-12-27T12:22:34.587Z,174.70
2022-12-27T12:25:51.682Z,168.70
2022-12-27T12:29:00.699Z,184.20
2022-12-27T12:31:52.984Z,180.50
2022-12-27T12:35:09.030Z,180.90
2022-12-27T12:44:56.434Z,188.60
2022-12-27T12:47:46.850Z,186.40
2022-12-27T12:51:02.566Z,176.10
2022-12-27T12:53:46.972Z,172.10
2022-12-27T12:57:07.460Z,171.10
2022-12-27T12:59:50.085Z,187.60
2022-12-27T13:03:06.776Z,181.00
2022-12-27T13:05:39.170Z,175.40
2022-12-27T13:08:48.505Z,172.40
2022-12-27T13:11:29.705Z,184.40
2022-12-27T13:14:28.064Z,167.50
2022-12-27T13:17:37.067Z,171.40
2022-12-27T13:21:02.101Z,164.10
2022-12-27T13:24:31.879Z,158.70
2022-12-27T13:27:41.372Z,161.90
2022-12-27T13:30:29.605Z,165.10
2022-12-27T13:33:39.935Z,156.70
2022-12-27T13:36:49.225Z,144.30
2022-12-27T13:39:59.067Z,129.10
2022-12-27T13:43:08.546Z,121.00
2022-12-27T13:46:00.565Z,124.00
2022-12-27T13:48:39.051Z,118.90
2022-12-27T13:51:52.081Z,110.60
2022-12-27T13:55:07.113Z,84.80
2022-12-27T14:04:52.311Z,103.50
2022-12-27T14:08:03.337Z,111.80
2022-12-27T14:11:00.579Z,114.00
2022-12-27T14:13:42.168Z,109.30
2022-12-27T14:16:49.957Z,109.60
2022-12-27T14:19:56.163Z,111.90
2022-12-27T14:26:51.512Z,128.70
2022-12-27T14:29:57.528Z,131.40
2022-12-27T14:32:44.019Z,129.10
2022-12-27T14:35:43.618Z,142.80
2022-12-27T14:38:30.795Z,116.10
2022-12-27T14:42:01.111Z,133.40
2022-12-27T14:45:24.062Z,129.00
2022-12-27T15:00:59.181Z,59.00
2022-12-27T15:04:30.255Z,65.30
2022-12-27T15:06:59.613Z,68.10
2022-12-27T15:10:08.515Z,64.70
2022-12-27T15:13:13.442Z,58.80
2022-12-27T15:16:02.868Z,55.00
2022-12-27T15:30:47.590Z,39.40
2022-12-27T15:33:22.460Z,41.10
2022-12-27T15:36:22.126Z,35.90
2022-12-27T15:38:54.919Z,36.00
2022-12-27T15:41:33.236Z,32.00
2022-12-27T15:44:31.230Z,29.20
2022-12-27T15:47:40.146Z,26.40
2022-12-27T15:50:30.971Z,25.70
2022-12-27T15:53:41.792Z,24.90
2022-12-27T15:56:49.737Z,28.30
2022-12-27T15:59:40.452Z,22.60
2022-12-27T16:02:18.724Z,31.10
2022-12-27T16:05:01.039Z,30.90
2022-12-27T16:07:48.835Z,18.80
2022-12-27T16:10:30.444Z,0.10
2022-12-27T16:16:28.762Z,0.30
2022-12-27T16:19:47.714Z,0.00
2022-12-27T16:25:49.425Z,0.00
2022-12-27T16:28:26.973Z,0.10
2022-12-27T16:31:00.287Z,0.00
2022-12-27T16:33:41.280Z,1.00
2022-12-27T16:36:49.034Z,0.20
2022-12-27T16:43:20.217Z,0.00
2022-12-27T16:46:43.172Z,0.20
2022-12-27T16:49:47.932Z,0.40
2022-12-27T16:52:39.929Z,0.10
2022-12-27T16:55:44.157Z,0.00
2022-12-27T16:58:33.988Z,0.00
2022-12-27T17:08:24.199Z,0.00
2022-12-27T17:11:04.936Z,0.10
2022-12-27T17:13:46.091Z,0.00
2022-12-27T17:16:49.402Z,0.20
2022-12-27T17:19:36.060Z,0.00
2022-12-27T17:22:49.889Z,0.00
2022-12-27T17:25:34.038Z,0.10
2022-12-27T17:34:58.276Z,0.10
2022-12-27T17:37:48.473Z,0.00
2022-12-27T17:40:46.644Z,0.00
2022-12-27T17:53:42.739Z,0.10
2022-12-27T17:56:30.273Z,0.20
2022-12-27T17:59:24.149Z,2.10
2022-12-27T18:02:04.709Z,0.00
2022-12-27T18:04:47.532Z,0.00
2022-12-27T18:07:42.729Z,0.30
2022-12-27T18:10:24.424Z,0.00
2022-12-27T18:17:28.932Z,0.00
2022-12-27T18:20:26.781Z,1.00
2022-12-27T18:23:01.798Z,0.10
2022-12-27T18:25:45.293Z,0.00
2022-12-27T18:28:34.708Z,0.60
2022-12-27T18:31:25.129Z,0.00
2022-12-27T18:34:03.802Z,0.00
2022-12-27T18:36:38.693Z,0.00
2022-12-27T18:39:30.247Z,0.10
2022-12-27T18:42:44.891Z,0.10
2022-12-27T18:45:22.560Z,0.00
2022-12-27T18:47:54.366Z,0.00
2022-12-27T18:50:30.372Z,0.00
2022-12-27T18:53:58.856Z,0.00
2022-12-27T19:00:30.901Z,0.10
2022-12-27T19:03:22.525Z,0.10
2022-12-27T19:06:13.188Z,0.00
2022-12-27T19:08:49.434Z,0.40
2022-12-27T19:11:56.934Z,0.00
2022-12-27T19:14:53.320Z,0.30
2022-12-27T19:24:34.704Z,0.00
2022-12-27T19:27:25.161Z,0.60
2022-12-27T19:29:54.270Z,0.00
2022-12-27T19:32:35.002Z,0.50
2022-12-27T19:35:05.134Z,0.10
2022-12-27T19:37:34.340Z,0.10
2022-12-27T19:40:03.542Z,0.00
2022-12-27T19:42:46.304Z,0.00
2022-12-27T19:45:18.207Z,0.00
2022-12-27T19:47:51.672Z,0.30
2022-12-27T19:50:20.850Z,0.10
2022-12-27T19:52:51.159Z,0.00
2022-12-27T19:55:25.507Z,0.10
2022-12-27T19:57:54.487Z,0.50
2022-12-27T20:00:24.507Z,0.10
2022-12-27T20:03:19.175Z,0.00
2022-12-27T20:06:13.058Z,0.10
2022-12-27T20:08:45.778Z,1.60
2022-12-27T20:11:23.156Z,0.50
2022-12-27T20:13:56.542Z,0.00
2022-12-27T20:16:36.786Z,0.00
2022-12-27T20:19:49.451Z,0.30
2022-12-27T20:22:21.627Z,0.40
2022-12-27T20:25:52.272Z,0.10
2022-12-27T20:28:21.532Z,0.00
2022-12-27T20:30:54.579Z,0.00
2022-12-27T20:33:25.360Z,0.00
2022-12-27T20:36:08.245Z,0.00
2022-12-27T20:38:39.959Z,0.00
2022-12-27T20:41:11.147Z,1.00
2022-12-27T20:46:15.038Z,0.00
2022-12-27T20:49:14.999Z,0.00
2022-12-27T20:51:49.197Z,0.00
2022-12-27T20:54:21.290Z,0.30
2022-12-27T20:56:50.631Z,0.00
2022-12-27T20:59:19.528Z,0.00
2022-12-27T21:01:53.014Z,0.00
2022-12-27T21:04:27.150Z,0.10
2022-12-27T21:06:56.342Z,0.10
2022-12-27T21:09:25.443Z,0.00
2022-12-27T21:11:54.505Z,0.10
2022-12-27T21:14:24.224Z,0.30
2022-12-27T21:16:53.328Z,0.60
2022-12-27T21:19:22.225Z,0.10
2022-12-27T21:21:51.157Z,0.20
2022-12-27T21:24:20.203Z,0.70
2022-12-27T21:26:54.702Z,0.00
2022-12-27T21:29:25.835Z,0.00
2022-12-27T21:31:55.039Z,0.70
2022-12-27T21:34:24.125Z,0.00
2022-12-27T21:36:53.004Z,0.10
2022-12-27T21:39:22.076Z,0.00
2022-12-27T21:41:51.487Z,0.00
2022-12-27T21:44:25.458Z,0.00
2022-12-27T21:46:56.339Z,0.00
2022-12-27T21:49:25.063Z,0.10
2022-12-27T21:51:54.223Z,0.00
2022-12-27T21:54:23.632Z,0.10
2022-12-27T21:56:52.475Z,0.00
2022-12-27T21:59:21.398Z,0.20
2022-12-27T22:01:52.657Z,0.00
2022-12-27T22:04:22.221Z,0.30
2022-12-27T22:06:51.364Z,0.00
2022-12-27T22:09:20.286Z,0.20
2022-12-27T22:11:49.585Z,0.00
2022-12-27T22:14:21.967Z,2.60
2022-12-27T22:16:54.579Z,0.00
2022-12-27T22:19:37.624Z,0.00
2022-12-27T22:22:06.731Z,0.00
2022-12-27T22:24:35.571Z,0.10
2022-12-27T22:27:04.620Z,0.20
2022-12-27T22:29:35.571Z,0.00
2022-12-27T22:32:04.870Z,0.00
2022-12-27T22:34:33.689Z,0.00
2022-12-27T22:37:02.648Z,0.10
2022-12-27T22:39:32.742Z,0.00
2022-12-27T22:45:15.269Z,0.00
2022-12-27T22:47:44.312Z,0.00
2022-12-27T22:50:13.851Z,0.00
2022-12-27T22:52:49.125Z,0.20
2022-12-27T22:55:18.400Z,0.20
2022-12-27T22:57:47.013Z,0.00
2022-12-27T23:00:16.484Z,0.10
2022-12-27T23:02:45.391Z,0.00
2022-12-27T23:05:15.016Z,0.10
2022-12-27T23:08:05.781Z,0.00
2022-12-27T23:10:33.060Z,0.10
2022-12-27T23:13:02.067Z,0.10
2022-12-27T23:15:30.935Z,0.00
2022-12-27T23:17:59.828Z,0.10
2022-12-27T23:20:28.553Z,0.00
2022-12-27T23:22:57.286Z,0.00
2022-12-27T23:25:26.601Z,0.00
2022-12-27T23:27:55.480Z,0.20
2022-12-27T23:30:24.766Z,0.60
2022-12-27T23:32:53.875Z,26.40
2022-12-27T23:35:23.120Z,21.20
2022-12-27T23:37:52.091Z,23.70
2022-12-27T23:40:21.182Z,23.90
2022-12-27T23:42:50.433Z,20.20
2022-12-27T23:45:19.478Z,27.40
2022-12-27T23:47:49.047Z,25.90
2022-12-27T23:50:21.040Z,16.90
2022-12-27T23:56:17.702Z,31.80
2022-12-27T23:58:47.442Z,24.60
